createdAt,value
2017-08-14T00:02:12.615Z,87.40
2017-08-14T00:04:42.128Z,87.15
2017-08-14T00:07:11.876Z,86.84
2017-08-14T00:09:41.132Z,86.84
2017-08-14T00:12:10.476Z,87.11
2017-08-14T00:14:40.920Z,87.21
2017-08-14T00:17:10.361Z,86.69
2017-08-14T00:19:40.386Z,86.57
2017-08-14T00:22:10.446Z,87.44
2017-08-14T00:24:39.684Z,87.71
2017-08-14T00:27:10.928Z,87.86
2017-08-14T00:29:49.482Z,88.10
2017-08-14T00:32:20.245Z,87.75
2017-08-14T00:34:49.848Z,87.98
2017-08-14T00:37:19.519Z,87.84
2017-08-14T00:39:49.465Z,87.53
2017-08-14T00:42:20.127Z,87.31
2017-08-14T00:44:49.982Z,86.86
2017-08-14T00:47:19.991Z,87.01
2017-08-14T00:49:49.261Z,87.09
2017-08-14T00:52:19.366Z,87.08
2017-08-14T00:54:48.938Z,87.59
2017-08-14T00:57:18.463Z,87.56
2017-08-14T00:59:48.915Z,87.24
2017-08-14T01:02:20.290Z,87.02
2017-08-14T01:04:49.734Z,87.07
2017-08-14T01:07:19.368Z,86.69
2017-08-14T01:09:48.990Z,87.28
2017-08-14T01:12:18.810Z,86.94
2017-08-14T01:14:48.854Z,86.82
2017-08-14T01:17:18.552Z,87.07
2017-08-14T01:19:48.531Z,87.27
2017-08-14T01:22:18.198Z,87.28
2017-08-14T01:24:47.691Z,87.25
2017-08-14T01:27:17.588Z,87.72
2017-08-14T01:29:47.312Z,88.08
2017-08-14T01:32:17.795Z,87.57
2017-08-14T01:34:56.202Z,87.12
2017-08-14T01:37:26.290Z,87.64
2017-08-14T01:39:55.660Z,87.26
2017-08-14T01:42:25.633Z,87.58
2017-08-14T01:44:55.807Z,87.44
2017-08-14T01:47:26.185Z,87.80
2017-08-14T01:49:56.287Z,87.51
2017-08-14T01:52:27.083Z,87.39
2017-08-14T01:54:56.967Z,87.35
2017-08-14T01:57:27.065Z,87.74
2017-08-14T01:59:56.803Z,87.12
2017-08-14T02:02:27.240Z,87.24
2017-08-14T02:04:56.662Z,87.70
2017-08-14T02:07:29.434Z,88.16
2017-08-14T02:09:59.147Z,87.54
2017-08-14T02:12:31.682Z,88.04
2017-08-14T02:15:01.351Z,87.76
2017-08-14T02:17:32.249Z,87.43
2017-08-14T02:20:02.654Z,87.25
2017-08-14T02:22:35.978Z,87.55
2017-08-14T02:25:05.546Z,87.95
2017-08-14T02:27:35.176Z,88.66
2017-08-14T02:30:05.061Z,87.98
2017-08-14T02:32:34.595Z,87.89
2017-08-14T02:35:03.983Z,87.41
2017-08-14T02:37:33.690Z,87.27
2017-08-14T02:40:03.531Z,87.46
2017-08-14T02:42:32.979Z,87.51
2017-08-14T02:45:02.884Z,87.04
2017-08-14T02:47:32.567Z,87.61
2017-08-14T02:50:01.962Z,87.16
2017-08-14T02:52:31.475Z,86.73
2017-08-14T02:55:01.067Z,86.38
2017-08-14T02:57:31.475Z,91.54
2017-08-14T03:00:01.825Z,88.31
2017-08-14T03:02:57.340Z,87.35
2017-08-14T03:05:30.229Z,87.21
2017-08-14T03:07:59.690Z,88.02
2017-08-14T03:10:30.750Z,87.93
2017-08-14T03:13:00.329Z,88.14
2017-08-14T03:15:31.282Z,88.86
2017-08-14T03:18:01.181Z,89.42
2017-08-14T03:20:31.815Z,89.42
2017-08-14T03:23:01.408Z,89.09
2017-08-14T03:25:31.420Z,89.51
2017-08-14T03:28:00.694Z,89.97
2017-08-14T03:30:31.070Z,90.12
2017-08-14T03:33:00.959Z,89.82
2017-08-14T03:35:31.294Z,90.15
2017-08-14T03:38:00.841Z,89.10
2017-08-14T03:40:31.311Z,89.51
2017-08-14T03:43:00.847Z,89.55
2017-08-14T03:45:31.417Z,89.52
2017-08-14T03:48:01.404Z,89.86
2017-08-14T03:50:32.062Z,89.94
2017-08-14T03:53:01.614Z,89.90
2017-08-14T03:55:31.948Z,90.21
2017-08-14T03:58:01.338Z,90.07
2017-08-14T04:00:31.251Z,89.93
2017-08-14T04:03:00.647Z,89.85
2017-08-14T04:05:33.134Z,89.63
2017-08-14T04:08:04.111Z,89.99
2017-08-14T04:10:33.658Z,89.96
2017-08-14T04:13:03.271Z,90.47
2017-08-14T04:15:33.063Z,90.02
2017-08-14T04:18:02.682Z,89.97
2017-08-14T04:20:32.106Z,89.68
2017-08-14T04:23:02.922Z,90.62
2017-08-14T04:25:32.218Z,89.92
2017-08-14T04:28:03.801Z,89.52
2017-08-14T04:33:12.225Z,90.83
2017-08-14T04:35:41.622Z,93.59
2017-08-14T04:38:11.150Z,91.74
2017-08-14T04:40:40.911Z,90.77
2017-08-14T04:43:10.442Z,90.70
2017-08-14T04:45:40.006Z,90.50
2017-08-14T04:48:11.115Z,90.49
2017-08-14T04:50:40.474Z,90.50
2017-08-14T04:53:09.788Z,91.10
2017-08-14T04:55:39.220Z,91.52
2017-08-14T04:58:08.373Z,90.79
2017-08-14T05:00:37.724Z,91.41
2017-08-14T05:03:07.523Z,92.75
2017-08-14T05:05:36.921Z,91.44
2017-08-14T05:08:06.222Z,90.65
2017-08-14T05:10:36.320Z,90.30
2017-08-14T05:13:05.723Z,90.14
2017-08-14T05:15:34.914Z,90.17
2017-08-14T05:18:04.912Z,90.32
2017-08-14T05:20:34.051Z,90.51
2017-08-14T05:23:03.301Z,90.60
2017-08-14T05:25:33.031Z,90.65
2017-08-14T05:28:02.475Z,90.53
2017-08-14T05:30:33.538Z,90.26
2017-08-14T05:33:03.316Z,91.18
2017-08-14T05:35:32.527Z,91.43
2017-08-14T05:38:01.723Z,91.82
2017-08-14T05:40:32.582Z,91.87
2017-08-14T05:43:02.151Z,92.58
2017-08-14T05:45:31.931Z,93.45
2017-08-14T05:48:02.184Z,93.41
2017-08-14T05:50:34.246Z,92.36
2017-08-14T05:53:03.562Z,92.25
2017-08-14T05:55:33.006Z,93.77
2017-08-14T05:58:02.190Z,93.67
2017-08-14T06:00:32.310Z,92.71
2017-08-14T06:03:01.957Z,92.80
2017-08-14T06:05:32.290Z,92.26
2017-08-14T06:08:01.651Z,92.23
2017-08-14T06:10:33.199Z,93.24
2017-08-14T06:13:02.406Z,92.39
2017-08-14T06:15:33.210Z,92.39
2017-08-14T06:18:02.789Z,92.21
2017-08-14T06:20:32.871Z,91.99
2017-08-14T06:23:02.022Z,91.25
2017-08-14T06:25:32.354Z,91.71
2017-08-14T06:28:01.522Z,92.19
2017-08-14T06:30:32.247Z,91.40
2017-08-14T06:33:02.550Z,92.20
2017-08-14T06:35:32.827Z,91.71
2017-08-14T06:38:02.188Z,91.06
2017-08-14T06:40:32.066Z,92.00
2017-08-14T06:43:01.251Z,92.07
2017-08-14T06:45:32.515Z,92.37
2017-08-14T06:48:02.666Z,90.68
2017-08-14T06:50:56.376Z,91.09
2017-08-14T06:53:27.031Z,88.45
2017-08-14T06:55:56.376Z,88.70
2017-08-14T06:58:29.406Z,86.84
2017-08-14T07:00:59.589Z,88.83
2017-08-14T07:03:30.717Z,88.89
2017-08-14T07:06:00.023Z,87.05
2017-08-14T07:08:30.456Z,88.92
2017-08-14T07:10:59.840Z,85.88
2017-08-14T07:13:30.478Z,87.26
2017-08-14T07:16:04.410Z,90.28
2017-08-14T07:18:33.650Z,86.29
2017-08-14T07:21:02.856Z,85.18
2017-08-14T07:23:33.215Z,82.55
2017-08-14T07:26:02.431Z,85.47
2017-08-14T07:28:31.741Z,80.98
2017-08-14T07:31:01.185Z,82.42
2017-08-14T07:33:31.283Z,83.12
2017-08-14T07:36:00.427Z,80.33
2017-08-14T07:38:31.875Z,82.72
2017-08-14T07:41:01.047Z,80.52
2017-08-14T07:43:31.557Z,79.96
2017-08-14T07:46:01.058Z,81.39
2017-08-14T07:48:31.951Z,80.58
2017-08-14T07:51:01.397Z,81.69
2017-08-14T07:53:31.730Z,78.48
2017-08-14T07:56:00.988Z,78.43
2017-08-14T07:58:31.746Z,81.34
2017-08-14T08:01:03.057Z,75.77
2017-08-14T08:03:32.242Z,77.18
2017-08-14T08:06:01.885Z,79.38
2017-08-14T08:08:32.622Z,75.36
2017-08-14T08:11:01.984Z,75.12
2017-08-14T08:13:31.261Z,72.23
2017-08-14T08:16:01.205Z,75.49
2017-08-14T08:18:31.871Z,74.38
2017-08-14T08:21:01.162Z,77.04
2017-08-14T08:23:31.596Z,75.46
2017-08-14T08:26:01.799Z,70.46
2017-08-14T08:28:31.730Z,73.76
2017-08-14T08:31:01.935Z,73.34
2017-08-14T08:33:31.682Z,68.22
2017-08-14T08:36:01.600Z,71.23
2017-08-14T08:38:31.408Z,67.19
2017-08-14T08:41:01.998Z,68.20
2017-08-14T08:43:31.705Z,69.20
2017-08-14T08:46:01.257Z,64.25
2017-08-14T08:48:31.636Z,63.69
2017-08-14T08:51:02.179Z,63.81
2017-08-14T08:53:32.607Z,61.77
2017-08-14T08:56:01.995Z,59.30
2017-08-14T08:58:32.014Z,60.30
2017-08-14T09:01:01.963Z,59.85
2017-08-14T09:03:32.798Z,60.20
2017-08-14T09:06:02.101Z,60.43
2017-08-14T09:08:31.677Z,60.78
2017-08-14T09:11:00.932Z,60.71
2017-08-14T09:13:31.702Z,61.77
2017-08-14T09:16:01.341Z,62.03
2017-08-14T09:18:31.625Z,60.36
2017-08-14T09:21:00.942Z,63.14
2017-08-14T09:23:33.361Z,60.35
2017-08-14T09:26:02.622Z,60.03
2017-08-14T09:28:32.108Z,56.96
2017-08-14T09:31:02.109Z,60.44
2017-08-14T09:33:31.501Z,61.01
2017-08-14T09:36:01.242Z,57.97
2017-08-14T09:38:34.068Z,60.07
2017-08-14T09:41:03.794Z,51.94
2017-08-14T09:43:32.980Z,51.66
2017-08-14T09:46:02.659Z,50.19
2017-08-14T09:48:32.058Z,50.20
2017-08-14T09:51:02.062Z,49.35
2017-08-14T09:53:31.522Z,48.49
2017-08-14T09:56:01.059Z,48.46
2017-08-14T09:58:31.286Z,49.12
2017-08-14T10:01:00.827Z,47.03
2017-08-14T10:03:30.036Z,49.39
2017-08-14T10:06:00.582Z,47.74
2017-08-14T10:08:35.239Z,48.18
2017-08-14T10:11:05.626Z,46.03
2017-08-14T10:13:45.059Z,47.52
2017-08-14T10:16:19.788Z,49.15
2017-08-14T10:18:49.739Z,49.28
2017-08-14T10:21:31.828Z,47.27
2017-08-14T10:24:20.269Z,47.55
2017-08-14T10:26:58.313Z,48.79
2017-08-14T10:29:29.031Z,44.83
2017-08-14T10:31:58.366Z,47.00
2017-08-14T10:34:28.872Z,47.69
2017-08-14T10:36:59.714Z,46.31
2017-08-14T10:39:30.171Z,48.28
2017-08-14T10:41:59.415Z,50.16
2017-08-14T10:44:30.936Z,47.36
2017-08-14T10:47:00.238Z,49.11
2017-08-14T10:49:31.287Z,46.14
2017-08-14T10:52:01.006Z,46.53
2017-08-14T10:54:31.520Z,46.95
2017-08-14T10:57:00.866Z,49.68
2017-08-14T10:59:32.053Z,43.74
2017-08-14T11:02:02.558Z,45.94
2017-08-14T11:04:31.727Z,43.70
2017-08-14T11:07:01.601Z,42.77
2017-08-14T11:09:31.790Z,46.55
2017-08-14T11:12:01.046Z,47.34
2017-08-14T11:14:31.654Z,46.01
2017-08-14T11:17:00.916Z,48.31
2017-08-14T11:19:33.532Z,43.36
2017-08-14T11:22:04.296Z,44.40
2017-08-14T11:24:33.446Z,45.91
2017-08-14T11:27:02.715Z,45.05
2017-08-14T11:29:32.374Z,43.35
2017-08-14T11:32:01.576Z,43.72
2017-08-14T11:34:31.950Z,45.93
2017-08-14T11:37:01.411Z,44.19
2017-08-14T11:39:32.610Z,45.11
2017-08-14T11:42:01.746Z,44.58
2017-08-14T11:44:32.071Z,46.32
2017-08-14T11:47:01.257Z,43.69
2017-08-14T11:49:32.201Z,43.85
2017-08-14T11:52:01.820Z,43.47
2017-08-14T11:54:32.444Z,45.28
2017-08-14T11:57:01.649Z,46.76
2017-08-14T11:59:33.084Z,46.42
2017-08-14T12:02:02.283Z,41.85
2017-08-14T12:04:32.039Z,46.61
2017-08-14T12:07:01.927Z,43.42
2017-08-14T12:09:34.846Z,44.42
2017-08-14T12:12:04.544Z,42.27
2017-08-14T12:14:33.740Z,41.35
2017-08-14T12:17:03.050Z,41.88
2017-08-14T12:19:32.700Z,40.50
2017-08-14T12:22:04.299Z,39.49
2017-08-14T12:24:33.809Z,39.33
2017-08-14T12:27:02.995Z,39.28
2017-08-14T12:29:32.190Z,41.18
2017-08-14T12:32:01.675Z,41.74
2017-08-14T12:34:32.224Z,41.92
2017-08-14T12:37:01.423Z,39.34
2017-08-14T12:39:33.803Z,41.53
2017-08-14T12:42:04.258Z,40.77
2017-08-14T12:44:33.436Z,41.41
2017-08-14T12:47:02.925Z,38.70
2017-08-14T12:49:32.128Z,39.38
2017-08-14T12:52:01.421Z,42.04
2017-08-14T12:54:34.189Z,42.86
2017-08-14T12:57:03.354Z,39.69
2017-08-14T12:59:32.888Z,41.13
2017-08-14T13:02:02.356Z,42.37
2017-08-14T13:04:31.915Z,39.88
2017-08-14T13:07:01.584Z,40.64
2017-08-14T13:09:35.333Z,40.77
2017-08-14T13:12:04.552Z,39.85
2017-08-14T13:14:33.806Z,39.79
2017-08-14T13:17:03.277Z,41.87
2017-08-14T13:19:32.534Z,40.27
2017-08-14T13:22:01.753Z,39.91
2017-08-14T13:24:32.575Z,40.54
2017-08-14T13:27:02.111Z,39.96
2017-08-14T13:29:32.922Z,39.22
2017-08-14T13:32:02.409Z,40.75
2017-08-14T13:34:32.619Z,40.65
2017-08-14T13:37:01.916Z,40.35
2017-08-14T13:39:33.702Z,42.34
2017-08-14T13:42:02.899Z,45.34
2017-08-14T13:44:33.086Z,44.41
2017-08-14T13:47:02.543Z,43.75
2017-08-14T13:49:39.627Z,43.58
2017-08-14T13:52:08.942Z,39.86
2017-08-14T13:54:38.506Z,40.62
2017-08-14T13:57:07.730Z,40.38
2017-08-14T13:59:36.913Z,42.38
2017-08-14T14:02:06.354Z,40.58
2017-08-14T14:04:35.642Z,40.50
2017-08-14T14:07:04.852Z,41.15
2017-08-14T14:09:34.306Z,41.89
2017-08-14T14:12:03.554Z,41.44
2017-08-14T14:14:32.714Z,42.53
2017-08-14T14:17:10.499Z,43.56
2017-08-14T14:19:39.670Z,45.05
2017-08-14T14:22:10.518Z,43.23
2017-08-14T14:24:39.690Z,44.24
2017-08-14T14:27:09.026Z,41.83
2017-08-14T14:29:38.559Z,41.75
2017-08-14T14:32:07.791Z,43.99
2017-08-14T14:34:36.959Z,42.33
2017-08-14T14:37:06.468Z,40.07
2017-08-14T14:39:35.682Z,38.86
2017-08-14T14:42:04.931Z,41.84
2017-08-14T14:44:34.382Z,41.10
2017-08-14T14:47:03.742Z,38.86
2017-08-14T14:49:32.906Z,39.75
2017-08-14T14:52:02.495Z,39.13
2017-08-14T14:54:31.631Z,41.09
2017-08-14T14:57:00.842Z,42.13
2017-08-14T14:59:30.462Z,43.59
2017-08-14T15:01:59.671Z,43.32
2017-08-14T15:04:28.867Z,43.55
2017-08-14T15:06:58.370Z,42.80
2017-08-14T15:09:27.949Z,43.10
2017-08-14T15:11:57.188Z,41.60
2017-08-14T15:14:27.613Z,42.52
2017-08-14T15:16:56.788Z,44.13
2017-08-14T15:19:26.842Z,42.80
2017-08-14T15:21:56.302Z,42.28
2017-08-14T15:24:25.481Z,41.94
2017-08-14T15:26:54.667Z,43.97
2017-08-14T15:29:30.102Z,46.56
2017-08-14T15:31:59.539Z,44.16
2017-08-14T15:34:28.775Z,44.42
2017-08-14T15:36:58.914Z,44.75
2017-08-14T15:39:28.200Z,43.75
2017-08-14T15:41:57.457Z,43.13
2017-08-14T15:44:26.919Z,43.52
2017-08-14T15:46:56.130Z,42.61
2017-08-14T15:49:25.475Z,43.36
2017-08-14T15:51:54.941Z,43.18
2017-08-14T15:54:24.468Z,42.90
2017-08-14T15:56:53.654Z,44.70
2017-08-14T15:59:23.227Z,45.27
2017-08-14T16:01:53.752Z,44.95
2017-08-14T16:04:23.516Z,45.01
2017-08-14T16:06:53.016Z,45.77
2017-08-14T16:09:22.218Z,45.15
2017-08-14T16:11:51.469Z,44.95
2017-08-14T16:14:22.746Z,44.67
2017-08-14T16:16:51.899Z,45.69
2017-08-14T16:19:29.779Z,46.04
2017-08-14T16:21:59.246Z,45.99
2017-08-14T16:24:29.179Z,44.91
2017-08-14T16:26:58.803Z,46.80
2017-08-14T16:29:28.328Z,46.98
2017-08-14T16:31:57.699Z,46.54
2017-08-14T16:34:26.832Z,46.07
2017-08-14T16:36:56.572Z,47.10
2017-08-14T16:39:25.887Z,47.26
2017-08-14T16:41:55.068Z,47.40
2017-08-14T16:44:28.171Z,47.42
2017-08-14T16:46:57.335Z,47.23
2017-08-14T16:49:27.811Z,48.69
2017-08-14T16:51:57.265Z,48.98
2017-08-14T16:54:26.505Z,48.66
2017-08-14T16:56:55.682Z,49.39
2017-08-14T16:59:25.133Z,49.27
2017-08-14T17:01:54.546Z,48.93
2017-08-14T17:04:23.789Z,48.50
2017-08-14T17:06:53.334Z,48.41
2017-08-14T17:09:22.574Z,48.44
2017-08-14T17:11:53.106Z,48.39
2017-08-14T17:14:24.626Z,48.66
2017-08-14T17:16:54.063Z,49.70
2017-08-14T17:19:23.282Z,48.81
2017-08-14T17:21:56.483Z,49.42
2017-08-14T17:24:29.497Z,49.27
2017-08-14T17:27:00.416Z,50.02
2017-08-14T17:29:31.320Z,49.54
2017-08-14T17:32:04.643Z,49.78
2017-08-14T17:34:35.975Z,51.07
2017-08-14T17:37:09.519Z,50.28
2017-08-14T17:39:41.051Z,50.83
2017-08-14T17:42:11.017Z,51.76
2017-08-14T17:44:40.166Z,52.06
2017-08-14T17:47:09.448Z,52.38
2017-08-14T17:49:38.894Z,52.24
2017-08-14T17:52:08.790Z,51.57
2017-08-14T17:54:37.985Z,53.30
2017-08-14T17:57:08.928Z,53.38
2017-08-14T17:59:38.550Z,53.01
2017-08-14T18:02:09.181Z,53.37
2017-08-14T18:04:38.703Z,53.49
2017-08-14T18:07:07.990Z,52.74
2017-08-14T18:09:37.198Z,52.59
2017-08-14T18:12:06.762Z,54.17
2017-08-14T18:14:36.010Z,53.83
2017-08-14T18:17:05.306Z,54.20
2017-08-14T18:19:34.759Z,55.01
2017-08-14T18:22:03.924Z,55.05
2017-08-14T18:24:33.086Z,54.55
2017-08-14T18:27:02.530Z,54.14
2017-08-14T18:29:31.739Z,54.40
2017-08-14T18:32:00.961Z,54.94
2017-08-14T18:34:30.448Z,55.28
2017-08-14T18:36:59.884Z,55.63
2017-08-14T18:39:29.390Z,56.22
2017-08-14T18:41:58.945Z,56.36
2017-08-14T18:44:28.300Z,56.61
2017-08-14T18:46:57.591Z,56.82
2017-08-14T18:49:27.093Z,57.09
2017-08-14T18:51:56.303Z,57.16
2017-08-14T18:54:25.602Z,56.96
2017-08-14T18:56:55.051Z,57.42
2017-08-14T18:59:24.407Z,57.91
2017-08-14T19:01:53.701Z,57.78
2017-08-14T19:04:23.296Z,57.90
2017-08-14T19:06:53.003Z,58.53
2017-08-14T19:09:23.427Z,58.60
2017-08-14T19:11:51.892Z,58.01
2017-08-14T19:14:21.450Z,57.99
2017-08-14T19:16:50.690Z,58.05
2017-08-14T19:19:21.478Z,57.95
2017-08-14T19:21:51.418Z,58.00
2017-08-14T19:24:20.575Z,58.21
2017-08-14T19:29:18.055Z,58.15
2017-08-14T19:31:47.294Z,58.32
2017-08-14T19:34:18.477Z,58.81
2017-08-14T19:36:47.758Z,58.60
2017-08-14T19:39:17.026Z,58.73
2017-08-14T19:41:46.818Z,58.82
2017-08-14T19:44:17.219Z,59.16
2017-08-14T19:46:46.530Z,59.78
2017-08-14T19:49:16.002Z,59.88
2017-08-14T19:51:45.222Z,59.42
2017-08-14T19:54:14.451Z,59.48
2017-08-14T19:56:44.125Z,59.61
2017-08-14T19:59:13.358Z,59.47
2017-08-14T20:01:45.986Z,59.59
2017-08-14T20:04:18.307Z,59.45
2017-08-14T20:06:51.557Z,60.82
2017-08-14T20:09:31.239Z,60.09
2017-08-14T20:12:12.275Z,59.08
2017-08-14T20:14:42.931Z,58.56
2017-08-14T20:17:26.127Z,58.66
2017-08-14T20:19:56.461Z,59.56
2017-08-14T20:22:40.308Z,59.36
2017-08-14T20:25:32.050Z,59.08
2017-08-14T20:28:09.068Z,59.95
2017-08-14T20:30:46.071Z,59.88
2017-08-14T20:33:23.630Z,59.83
2017-08-14T20:36:07.039Z,59.37
2017-08-14T20:38:36.542Z,59.67
2017-08-14T20:41:06.308Z,60.33
2017-08-14T20:43:35.538Z,60.78
2017-08-14T20:46:04.746Z,60.90
2017-08-14T20:48:34.344Z,61.16
2017-08-14T20:51:03.589Z,61.88
2017-08-14T20:53:32.807Z,61.54
2017-08-14T20:56:02.255Z,62.10
2017-08-14T20:58:31.436Z,62.25
2017-08-14T21:01:00.703Z,62.94
2017-08-14T21:03:30.206Z,62.85
2017-08-14T21:06:00.003Z,62.51
2017-08-14T21:08:29.230Z,62.49
2017-08-14T21:10:58.901Z,62.39
2017-08-14T21:13:28.330Z,62.93
2017-08-14T21:15:57.514Z,63.02
2017-08-14T21:18:27.023Z,63.66
2017-08-14T21:20:56.398Z,64.15
2017-08-14T21:23:25.539Z,64.86
2017-08-14T21:25:56.415Z,65.00
2017-08-14T21:28:25.657Z,65.22
2017-08-14T21:30:54.794Z,65.28
2017-08-14T21:33:24.655Z,65.16
2017-08-14T21:35:53.845Z,65.07
2017-08-14T21:38:23.010Z,66.35
2017-08-14T21:40:52.470Z,66.18
2017-08-14T21:43:21.644Z,68.03
2017-08-14T21:45:50.829Z,67.61
2017-08-14T21:48:20.312Z,66.73
2017-08-14T21:50:49.633Z,66.66
2017-08-14T21:53:18.974Z,66.80
2017-08-14T21:55:48.986Z,67.65
2017-08-14T21:58:18.174Z,67.87
2017-08-14T22:00:47.310Z,67.74
2017-08-14T22:03:17.199Z,68.16
2017-08-14T22:05:46.588Z,67.94
2017-08-14T22:08:17.192Z,67.99
2017-08-14T22:10:46.681Z,68.41
2017-08-14T22:13:15.862Z,68.73
2017-08-14T22:15:45.051Z,69.28
2017-08-14T22:18:14.494Z,69.64
2017-08-14T22:20:44.034Z,69.56
2017-08-14T22:23:13.228Z,69.24
2017-08-14T22:25:42.779Z,67.94
2017-08-14T22:28:12.031Z,68.79
2017-08-14T22:30:42.734Z,69.92
2017-08-14T22:33:12.650Z,69.97
2017-08-14T22:35:45.103Z,68.17
2017-08-14T22:38:14.654Z,67.86
2017-08-14T22:40:43.962Z,68.68
2017-08-14T22:43:13.534Z,69.20
2017-08-14T22:45:44.738Z,68.13
2017-08-14T22:48:14.222Z,68.29
2017-08-14T22:50:44.171Z,68.22
2017-08-14T22:53:13.918Z,67.70
2017-08-14T22:55:43.083Z,66.54
2017-08-14T22:58:12.256Z,64.85
2017-08-14T23:00:49.687Z,63.66
2017-08-14T23:05:57.094Z,62.47
2017-08-14T23:08:26.302Z,63.10
2017-08-14T23:10:55.714Z,63.60
2017-08-14T23:13:25.786Z,64.59
2017-08-14T23:15:55.182Z,65.01
2017-08-14T23:18:24.615Z,66.44
2017-08-14T23:20:54.336Z,67.57
2017-08-14T23:23:23.919Z,70.46
2017-08-14T23:25:53.218Z,70.59
2017-08-14T23:28:23.057Z,70.27
2017-08-14T23:30:52.567Z,70.88
2017-08-14T23:33:21.914Z,71.46
2017-08-14T23:35:51.334Z,72.13
2017-08-14T23:38:20.487Z,72.31
2017-08-14T23:40:49.743Z,73.27
2017-08-14T23:43:19.227Z,71.79
2017-08-14T23:45:49.080Z,72.22
2017-08-14T23:48:22.495Z,74.26
2017-08-14T23:50:51.660Z,75.32
2017-08-14T23:53:20.918Z,74.61
2017-08-14T23:55:50.590Z,73.56
2017-08-14T23:58:19.871Z,74.70
